createdAt,value
2024-03-24T00:00:45.428Z,954.3100
2024-03-24T00:01:50.321Z,954.3100
2024-03-24T00:02:55.106Z,954.2900
2024-03-24T00:04:00.033Z,954.3000
2024-03-24T00:05:04.884Z,954.3000
2024-03-24T00:06:09.666Z,954.3100
2024-03-24T00:07:14.530Z,954.3000
2024-03-24T00:08:19.309Z,954.3000
2024-03-24T00:09:24.205Z,954.2900
2024-03-24T00:10:29.246Z,954.2800
2024-03-24T00:11:33.999Z,954.2800
2024-03-24T00:12:38.778Z,954.2700
2024-03-24T00:13:43.656Z,954.2600
2024-03-24T00:14:48.511Z,954.2500
2024-03-24T00:15:53.254Z,954.2200
2024-03-24T00:16:58.049Z,954.1900
2024-03-24T00:18:02.862Z,954.1700
2024-03-24T00:19:07.748Z,954.1300
2024-03-24T00:20:12.513Z,954.1100
2024-03-24T00:21:17.444Z,954.0900
2024-03-24T00:22:22.391Z,954.0900
2024-03-24T00:23:27.161Z,954.0900
2024-03-24T00:24:31.931Z,954.0800
2024-03-24T00:25:36.745Z,954.0900
2024-03-24T00:26:41.523Z,954.0800
2024-03-24T00:27:46.359Z,954.0900
2024-03-24T00:28:51.197Z,954.0900
2024-03-24T00:29:55.989Z,954.0800
2024-03-24T00:31:00.840Z,954.0800
2024-03-24T00:32:05.738Z,954.0700
2024-03-24T00:33:10.703Z,954.0700
2024-03-24T00:34:15.667Z,954.0600
2024-03-24T00:35:20.416Z,954.0600
2024-03-24T00:36:25.277Z,954.0500
2024-03-24T00:37:30.224Z,954.0400
2024-03-24T00:38:35.206Z,954.0200
2024-03-24T00:39:42.501Z,954.0100
2024-03-24T00:40:50.702Z,953.9800
2024-03-24T00:41:55.515Z,953.9500
2024-03-24T00:43:00.480Z,953.9200
2024-03-24T00:44:05.391Z,953.9100
2024-03-24T00:45:10.167Z,953.8800
2024-03-24T00:46:15.027Z,953.8600
2024-03-24T00:47:19.974Z,953.8800
2024-03-24T00:48:24.736Z,953.8700
2024-03-24T00:49:29.621Z,953.8600
2024-03-24T00:50:34.550Z,953.8600
2024-03-24T00:51:39.309Z,953.8500
2024-03-24T00:52:44.133Z,953.8500
2024-03-24T00:53:48.922Z,953.8300
2024-03-24T00:54:53.740Z,953.8100
2024-03-24T00:55:58.494Z,953.7900
2024-03-24T00:57:03.331Z,953.7700
2024-03-24T00:58:08.136Z,953.7800
2024-03-24T00:59:12.933Z,953.7800
2024-03-24T01:00:17.734Z,953.7600
2024-03-24T01:01:22.512Z,953.7300
2024-03-24T01:02:27.320Z,953.7100
2024-03-24T01:03:32.107Z,953.6900
2024-03-24T01:04:36.858Z,953.6900
2024-03-24T01:05:41.736Z,953.6500
2024-03-24T01:06:46.675Z,953.6400
2024-03-24T01:07:51.460Z,953.6200
2024-03-24T01:08:56.304Z,953.6300
2024-03-24T01:10:01.076Z,953.6200
2024-03-24T01:11:05.896Z,953.5900
2024-03-24T01:12:10.855Z,953.5900
2024-03-24T01:13:15.610Z,953.5900
2024-03-24T01:14:20.464Z,953.6000
2024-03-24T01:15:25.278Z,953.5600
2024-03-24T01:16:30.053Z,953.5600
2024-03-24T01:17:34.847Z,953.5800
2024-03-24T01:18:39.668Z,953.6000
2024-03-24T01:19:44.463Z,953.6100
2024-03-24T01:20:49.317Z,953.5800
2024-03-24T01:21:54.238Z,953.5600
2024-03-24T01:22:58.978Z,953.5500
2024-03-24T01:24:03.854Z,953.5200
2024-03-24T01:25:08.822Z,953.5200
2024-03-24T01:26:13.557Z,953.5200
2024-03-24T01:27:18.382Z,953.5100
2024-03-24T01:28:23.341Z,953.5100
2024-03-24T01:29:28.256Z,953.4900
2024-03-24T01:30:33.029Z,953.4700
2024-03-24T01:31:37.894Z,953.4400
2024-03-24T01:32:42.698Z,953.4100
2024-03-24T01:33:47.499Z,953.4500
2024-03-24T01:34:52.292Z,953.4400
2024-03-24T01:35:57.108Z,953.4200
2024-03-24T01:37:02.081Z,953.4100
2024-03-24T01:38:07.028Z,953.3700
2024-03-24T01:39:11.961Z,953.3700
2024-03-24T01:40:16.735Z,953.3700
2024-03-24T01:41:21.605Z,953.3600
2024-03-24T01:42:26.507Z,953.3900
2024-03-24T01:43:31.305Z,953.3700
2024-03-24T01:44:36.067Z,953.3800
2024-03-24T01:45:40.878Z,953.3500
2024-03-24T01:46:45.744Z,953.3100
2024-03-24T01:47:50.520Z,953.2800
2024-03-24T01:48:55.335Z,953.2900
2024-03-24T01:50:00.232Z,953.2600
2024-03-24T01:51:04.947Z,953.2200
2024-03-24T01:52:09.922Z,953.2300
2024-03-24T01:53:14.853Z,953.1900
2024-03-24T01:54:19.637Z,953.2000
2024-03-24T01:55:24.472Z,953.2000
2024-03-24T01:56:29.283Z,953.1800
2024-03-24T01:57:34.105Z,953.1600
2024-03-24T01:58:38.886Z,953.1700
2024-03-24T01:59:43.668Z,953.1900
2024-03-24T02:00:48.590Z,953.1900
2024-03-24T02:01:53.586Z,953.1900
2024-03-24T02:02:58.520Z,953.2000
2024-03-24T02:04:03.465Z,953.2000
2024-03-24T02:05:08.416Z,953.1500
2024-03-24T02:06:13.199Z,953.1500
2024-03-24T02:07:18.009Z,953.1200
2024-03-24T02:08:22.993Z,953.1000
2024-03-24T02:09:27.958Z,953.0900
2024-03-24T02:10:32.692Z,953.0800
2024-03-24T02:11:37.526Z,953.0800
2024-03-24T02:12:42.499Z,953.0600
2024-03-24T02:13:47.476Z,953.0700
2024-03-24T02:14:52.404Z,953.0500
2024-03-24T02:15:57.201Z,953.0600
2024-03-24T02:17:02.006Z,953.0500
2024-03-24T02:18:07.010Z,953.0400
2024-03-24T02:19:11.827Z,953.0300
2024-03-24T02:20:16.646Z,953.0400
2024-03-24T02:21:21.526Z,953.0300
2024-03-24T02:22:26.288Z,953.0400
2024-03-24T02:23:31.137Z,953.0300
2024-03-24T02:24:36.087Z,953.0200
2024-03-24T02:25:40.874Z,952.9900
2024-03-24T02:26:45.710Z,952.9900
2024-03-24T02:27:50.677Z,952.9800
2024-03-24T02:28:55.548Z,952.9800
2024-03-24T02:30:00.313Z,953.0000
2024-03-24T02:31:05.204Z,953.0100
2024-03-24T02:32:10.114Z,953.0000
2024-03-24T02:33:14.920Z,952.9800
2024-03-24T02:34:19.788Z,952.9700
2024-03-24T02:35:24.674Z,952.9500
2024-03-24T02:36:29.447Z,952.9400
2024-03-24T02:37:34.376Z,952.9300
2024-03-24T02:38:39.124Z,952.9400
2024-03-24T02:39:43.939Z,952.9300
2024-03-24T02:40:49.216Z,952.9300
2024-03-24T02:41:54.053Z,952.9200
2024-03-24T02:42:58.861Z,952.8900
2024-03-24T02:44:03.795Z,952.9100
2024-03-24T02:45:08.755Z,952.8800
2024-03-24T02:46:13.780Z,952.8900
2024-03-24T02:47:18.534Z,952.8800
2024-03-24T02:48:23.296Z,952.8700
2024-03-24T02:49:28.250Z,952.8700
2024-03-24T02:50:33.039Z,952.8500
2024-03-24T02:51:37.855Z,952.8300
2024-03-24T02:52:42.823Z,952.8300
2024-03-24T02:53:47.787Z,952.8300
2024-03-24T02:54:52.719Z,952.8300
2024-03-24T02:55:57.507Z,952.8300
2024-03-24T02:57:02.392Z,952.8200
2024-03-24T02:58:07.360Z,952.8200
2024-03-24T02:59:12.093Z,952.8200
2024-03-24T03:00:16.887Z,952.8200
2024-03-24T03:01:21.857Z,952.8100
2024-03-24T03:02:26.604Z,952.8000
2024-03-24T03:03:31.450Z,952.8100
2024-03-24T03:04:36.215Z,952.7900
2024-03-24T03:05:41.053Z,952.7700
2024-03-24T03:06:45.846Z,952.7700
2024-03-24T03:07:50.659Z,952.7700
2024-03-24T03:08:55.624Z,952.7700
2024-03-24T03:10:00.576Z,952.7600
2024-03-24T03:11:05.502Z,952.7700
2024-03-24T03:12:10.269Z,952.7700
2024-03-24T03:13:15.177Z,952.7800
2024-03-24T03:14:20.075Z,952.7700
2024-03-24T03:15:24.846Z,952.7600
2024-03-24T03:16:29.700Z,952.7700
2024-03-24T03:17:34.644Z,952.7700
2024-03-24T03:18:39.447Z,952.7700
2024-03-24T03:19:44.255Z,952.7700
2024-03-24T03:20:49.200Z,952.7700
2024-03-24T03:21:54.003Z,952.7800
2024-03-24T03:22:58.822Z,952.7900
2024-03-24T03:24:03.607Z,952.7700
2024-03-24T03:25:08.463Z,952.7800
2024-03-24T03:26:13.384Z,952.8100
2024-03-24T03:27:18.323Z,952.7900
2024-03-24T03:28:23.073Z,952.7800
2024-03-24T03:29:27.946Z,952.7600
2024-03-24T03:30:32.869Z,952.7500
2024-03-24T03:31:37.654Z,952.7500
2024-03-24T03:32:42.509Z,952.7400
2024-03-24T03:33:47.445Z,952.7400
2024-03-24T03:34:52.193Z,952.7600
2024-03-24T03:35:57.084Z,952.7500
2024-03-24T03:37:02.003Z,952.7700
2024-03-24T03:38:06.771Z,952.8200
2024-03-24T03:39:11.614Z,952.8900
2024-03-24T03:40:16.557Z,952.9400
2024-03-24T03:41:21.304Z,952.9500
2024-03-24T03:42:26.192Z,952.9600
2024-03-24T03:43:31.114Z,952.9700
2024-03-24T03:44:35.881Z,952.9600
2024-03-24T03:45:40.876Z,952.9300
2024-03-24T03:46:45.689Z,952.9000
2024-03-24T03:47:50.457Z,952.8900
2024-03-24T03:48:55.627Z,952.8700
2024-03-24T03:50:00.591Z,952.8700
2024-03-24T03:51:05.541Z,952.8400
2024-03-24T03:52:10.545Z,952.8400
2024-03-24T03:53:15.465Z,952.8400
2024-03-24T03:54:20.393Z,952.8400
2024-03-24T03:55:25.187Z,952.8200
2024-03-24T03:56:30.075Z,952.7900
2024-03-24T03:57:34.887Z,952.8300
2024-03-24T03:58:39.679Z,952.8100
2024-03-24T03:59:44.555Z,952.8000
2024-03-24T04:00:49.503Z,952.7700
2024-03-24T04:01:54.306Z,952.8000
2024-03-24T04:02:59.137Z,952.8200
2024-03-24T04:04:04.007Z,952.8300
2024-03-24T04:05:08.813Z,952.8100
2024-03-24T04:06:13.685Z,952.7900
2024-03-24T04:07:18.609Z,952.7700
2024-03-24T04:08:23.451Z,952.7700
2024-03-24T04:09:28.254Z,952.7800
2024-03-24T04:10:33.148Z,952.7800
2024-03-24T04:11:37.977Z,952.7700
2024-03-24T04:12:42.708Z,952.7600
2024-03-24T04:13:47.547Z,952.7400
2024-03-24T04:14:52.454Z,952.7500
2024-03-24T04:15:57.372Z,952.7400
2024-03-24T04:17:02.294Z,952.7400
2024-03-24T04:18:07.079Z,952.7500
2024-03-24T04:19:11.941Z,952.7500
2024-03-24T04:20:16.854Z,952.7500
2024-03-24T04:21:21.677Z,952.7700
2024-03-24T04:22:26.523Z,952.7600
2024-03-24T04:23:31.403Z,952.7600
2024-03-24T04:24:36.199Z,952.7600
2024-03-24T04:25:41.000Z,952.7600
2024-03-24T04:26:45.969Z,952.7800
2024-03-24T04:27:50.764Z,952.8000
2024-03-24T04:28:55.628Z,952.8200
2024-03-24T04:30:00.510Z,952.8300
2024-03-24T04:31:05.376Z,952.8600
2024-03-24T04:32:10.151Z,952.8800
2024-03-24T04:33:15.084Z,952.9000
2024-03-24T04:34:19.867Z,952.9200
2024-03-24T04:35:24.780Z,952.9300
2024-03-24T04:36:29.627Z,952.9300
2024-03-24T04:37:34.405Z,952.9200
2024-03-24T04:38:39.296Z,952.9000
2024-03-24T04:39:44.218Z,952.8700
2024-03-24T04:40:49.226Z,952.8500
2024-03-24T04:41:54.187Z,952.8400
2024-03-24T04:42:58.966Z,952.8200
2024-03-24T04:44:03.778Z,952.8200
2024-03-24T04:45:08.568Z,952.8200
2024-03-24T04:46:13.396Z,952.8200
2024-03-24T04:47:18.344Z,952.8200
2024-03-24T04:48:23.314Z,952.8100
2024-03-24T04:49:28.269Z,952.7900
2024-03-24T04:50:33.051Z,952.7700
2024-03-24T04:51:37.864Z,952.7700
2024-03-24T04:52:45.459Z,952.7600
2024-03-24T04:53:50.645Z,952.7200
2024-03-24T04:54:55.696Z,952.6900
2024-03-24T04:56:00.587Z,952.6400
2024-03-24T04:57:05.537Z,952.6100
2024-03-24T04:58:10.317Z,952.6000
2024-03-24T04:59:15.141Z,952.6200
2024-03-24T05:00:20.131Z,952.6300
2024-03-24T05:01:25.066Z,952.6200
2024-03-24T05:02:30.055Z,952.6300
2024-03-24T05:03:35.004Z,952.6500
2024-03-24T05:04:39.944Z,952.6600
2024-03-24T05:05:44.845Z,952.6900
2024-03-24T05:06:49.659Z,952.7100
2024-03-24T05:07:54.505Z,952.7200
2024-03-24T05:08:59.438Z,952.7300
2024-03-24T05:10:04.229Z,952.7500
2024-03-24T05:11:09.076Z,952.7400
2024-03-24T05:12:13.998Z,952.7600
2024-03-24T05:13:18.782Z,952.7600
2024-03-24T05:14:23.642Z,952.7700
2024-03-24T05:15:28.513Z,952.7800
2024-03-24T05:16:33.290Z,952.7900
2024-03-24T05:17:38.214Z,952.8200
2024-03-24T05:18:43.033Z,952.8100
2024-03-24T05:19:47.828Z,952.8100
2024-03-24T05:20:52.766Z,952.8100
2024-03-24T05:21:57.663Z,952.8100
2024-03-24T05:23:02.495Z,952.8200
2024-03-24T05:24:07.250Z,952.8500
2024-03-24T05:25:12.064Z,952.8700
2024-03-24T05:26:16.928Z,952.8900
2024-03-24T05:27:21.889Z,952.9000
2024-03-24T05:28:27.093Z,952.9300
2024-03-24T05:29:35.233Z,952.9500
2024-03-24T05:30:40.025Z,952.9500
2024-03-24T05:31:44.964Z,952.9600
2024-03-24T05:32:49.886Z,953.0100
2024-03-24T05:33:54.859Z,953.0600
2024-03-24T05:34:59.817Z,953.1000
2024-03-24T05:36:04.597Z,953.1500
2024-03-24T05:37:09.402Z,953.1800
2024-03-24T05:38:14.211Z,953.2100
2024-03-24T05:39:18.999Z,953.2300
2024-03-24T05:40:23.990Z,953.2500
2024-03-24T05:41:28.935Z,953.3000
2024-03-24T05:42:33.708Z,953.2800
2024-03-24T05:43:38.510Z,953.2800
2024-03-24T05:44:43.318Z,953.2700
2024-03-24T05:45:48.108Z,953.2800
2024-03-24T05:46:52.909Z,953.3200
2024-03-24T05:47:57.722Z,953.3300
2024-03-24T05:49:02.520Z,953.3300
2024-03-24T05:50:07.325Z,953.3300
2024-03-24T05:51:12.279Z,953.3300
2024-03-24T05:52:19.027Z,953.3500
2024-03-24T05:53:24.978Z,953.3500
2024-03-24T05:54:29.732Z,953.3600
2024-03-24T05:55:34.636Z,953.3600
2024-03-24T05:56:39.413Z,953.3200
2024-03-24T05:57:44.303Z,953.3300
2024-03-24T05:58:49.157Z,953.3400
2024-03-24T05:59:53.942Z,953.3900
2024-03-24T06:00:58.823Z,953.4000
2024-03-24T06:02:03.785Z,953.4000
2024-03-24T06:03:08.546Z,953.4400
2024-03-24T06:04:13.449Z,953.4600
2024-03-24T06:05:18.306Z,953.4600
2024-03-24T06:06:23.087Z,953.4700
2024-03-24T06:07:27.955Z,953.5000
2024-03-24T06:08:32.870Z,953.4900
2024-03-24T06:09:37.653Z,953.4900
2024-03-24T06:10:42.548Z,953.5500
2024-03-24T06:11:47.419Z,953.5400
2024-03-24T06:12:52.187Z,953.5700
2024-03-24T06:13:57.084Z,953.5800
2024-03-24T06:15:01.903Z,953.5800
2024-03-24T06:16:06.670Z,953.5800
2024-03-24T06:17:11.456Z,953.6100
2024-03-24T06:18:16.307Z,953.6200
2024-03-24T06:19:21.110Z,953.6400
2024-03-24T06:20:25.905Z,953.6400
2024-03-24T06:21:30.671Z,953.6200
2024-03-24T06:22:35.486Z,953.6200
2024-03-24T06:23:40.439Z,953.6000
2024-03-24T06:24:45.351Z,953.6500
2024-03-24T06:25:50.139Z,953.6600
2024-03-24T06:26:55.003Z,953.6600
2024-03-24T06:27:59.926Z,953.6700
2024-03-24T06:29:04.745Z,953.6900
2024-03-24T06:30:09.565Z,953.7100
2024-03-24T06:31:14.463Z,953.7100
2024-03-24T06:32:19.267Z,953.7400
2024-03-24T06:33:24.144Z,953.7200
2024-03-24T06:34:29.083Z,953.7300
2024-03-24T06:35:33.835Z,953.7400
2024-03-24T06:36:38.695Z,953.7700
2024-03-24T06:37:43.476Z,953.7800
2024-03-24T06:38:48.285Z,953.8200
2024-03-24T06:39:53.248Z,953.8600
2024-03-24T06:40:58.034Z,953.8500
2024-03-24T06:42:02.835Z,953.8800
2024-03-24T06:43:07.664Z,953.9000
2024-03-24T06:44:12.454Z,953.9200
2024-03-24T06:45:17.407Z,953.9100
2024-03-24T06:46:22.370Z,953.9200
2024-03-24T06:47:27.293Z,953.9500
2024-03-24T06:48:32.091Z,953.9800
2024-03-24T06:49:36.921Z,954.0100
2024-03-24T06:50:41.828Z,954.0500
2024-03-24T06:51:46.660Z,954.0800
2024-03-24T06:52:51.480Z,954.1300
2024-03-24T06:53:56.375Z,954.1400
2024-03-24T06:55:01.182Z,954.1500
2024-03-24T06:56:06.038Z,954.1300
2024-03-24T06:57:10.998Z,954.1300
2024-03-24T06:58:15.821Z,954.1100
2024-03-24T06:59:20.594Z,954.1000
2024-03-24T07:00:25.403Z,954.1000
2024-03-24T07:01:30.199Z,954.1000
2024-03-24T07:02:35.168Z,954.1100
2024-03-24T07:03:40.130Z,954.0800
2024-03-24T07:04:45.092Z,954.0800
2024-03-24T07:05:50.061Z,954.0700
2024-03-24T07:06:55.009Z,954.0800
2024-03-24T07:07:59.969Z,954.1100
2024-03-24T07:09:04.934Z,954.1300
2024-03-24T07:10:09.867Z,954.1200
2024-03-24T07:11:14.641Z,954.1200
2024-03-24T07:12:19.492Z,954.1100
2024-03-24T07:13:24.498Z,954.1000
2024-03-24T07:14:29.215Z,954.1100
2024-03-24T07:15:34.055Z,954.1300
2024-03-24T07:16:38.961Z,954.1300
2024-03-24T07:17:43.736Z,954.1000
2024-03-24T07:18:48.610Z,954.0900
2024-03-24T07:19:53.546Z,954.0400
2024-03-24T07:20:58.306Z,954.0200
2024-03-24T07:22:03.136Z,954.0500
2024-03-24T07:23:08.086Z,954.0600
2024-03-24T07:24:12.862Z,954.0800
2024-03-24T07:25:17.657Z,954.1600
2024-03-24T07:26:24.921Z,954.1600
2024-03-24T07:27:30.230Z,954.1400
2024-03-24T07:28:34.976Z,954.1200
2024-03-24T07:29:39.840Z,954.1300
2024-03-24T07:30:44.789Z,954.1500
2024-03-24T07:31:49.726Z,954.1700
2024-03-24T07:32:54.517Z,954.1700
2024-03-24T07:33:59.337Z,954.1900
2024-03-24T07:35:04.289Z,954.1800
2024-03-24T07:36:09.233Z,954.2000
2024-03-24T07:37:14.023Z,954.2300
2024-03-24T07:38:18.844Z,954.2100
2024-03-24T07:39:23.822Z,954.2100
2024-03-24T07:40:28.767Z,954.2300
2024-03-24T07:41:33.748Z,954.2600
2024-03-24T07:42:39.784Z,954.2400
2024-03-24T07:43:45.546Z,954.2400
2024-03-24T07:44:50.351Z,954.2800
2024-03-24T07:45:55.158Z,954.2800
2024-03-24T07:46:59.922Z,954.2900
2024-03-24T07:48:04.764Z,954.3300
2024-03-24T07:49:09.714Z,954.3600
2024-03-24T07:50:14.481Z,954.3800
2024-03-24T07:51:19.342Z,954.4000
2024-03-24T07:52:24.279Z,954.4100
2024-03-24T07:53:29.027Z,954.4000
2024-03-24T07:54:33.910Z,954.4000
2024-03-24T07:55:38.824Z,954.3800
2024-03-24T07:56:43.589Z,954.4300
2024-03-24T07:57:48.442Z,954.4600
2024-03-24T07:58:53.382Z,954.4900
2024-03-24T07:59:58.266Z,954.4900
2024-03-24T08:01:03.063Z,954.5100
2024-03-24T08:02:07.942Z,954.5300
2024-03-24T08:03:12.843Z,954.5300
2024-03-24T08:04:17.696Z,954.5400
2024-03-24T08:05:22.516Z,954.5500
2024-03-24T08:06:27.412Z,954.5400
2024-03-24T08:07:32.260Z,954.5500
2024-03-24T08:08:37.055Z,954.5300
2024-03-24T08:09:41.846Z,954.5300
2024-03-24T08:10:46.695Z,954.5900
2024-03-24T08:11:51.622Z,954.5700
2024-03-24T08:12:56.405Z,954.5700
2024-03-24T08:14:01.230Z,954.5800
2024-03-24T08:15:06.190Z,954.6100
2024-03-24T08:16:10.956Z,954.6000
2024-03-24T08:17:15.773Z,954.6100
2024-03-24T08:18:20.758Z,954.6100
2024-03-24T08:19:25.565Z,954.6600
2024-03-24T08:20:30.437Z,954.6900
2024-03-24T08:21:35.328Z,954.6600
2024-03-24T08:22:40.120Z,954.6700
2024-03-24T08:23:44.935Z,954.6700
2024-03-24T08:24:49.885Z,954.6700
2024-03-24T08:25:54.712Z,954.6600
2024-03-24T08:26:59.470Z,954.7000
2024-03-24T08:28:04.429Z,954.7100
2024-03-24T08:29:09.206Z,954.7400
2024-03-24T08:30:14.036Z,954.7200
2024-03-24T08:31:18.991Z,954.7600
2024-03-24T08:32:23.957Z,954.7100
2024-03-24T08:33:28.738Z,954.6500
2024-03-24T08:34:33.557Z,954.6600
2024-03-24T08:35:38.480Z,954.6600
2024-03-24T08:36:43.273Z,954.6800
2024-03-24T08:37:48.114Z,954.7100
2024-03-24T08:38:53.058Z,954.7400
2024-03-24T08:39:57.821Z,954.7700
2024-03-24T08:41:02.695Z,954.7800
2024-03-24T08:42:07.582Z,954.8000
2024-03-24T08:43:12.368Z,954.7900
2024-03-24T08:44:17.138Z,954.8400
2024-03-24T08:45:21.954Z,954.8300
2024-03-24T08:46:26.881Z,954.8800
2024-03-24T08:47:31.691Z,954.8600
2024-03-24T08:48:42.043Z,954.8600
2024-03-24T08:49:47.174Z,954.8400
2024-03-24T08:50:52.201Z,954.8600
2024-03-24T08:51:57.067Z,954.9000
2024-03-24T08:53:01.953Z,954.9000
2024-03-24T08:54:06.755Z,954.8700
2024-03-24T08:55:11.673Z,954.8700
2024-03-24T08:56:16.516Z,954.8800
2024-03-24T08:57:21.334Z,954.9100
2024-03-24T08:58:26.180Z,954.9200
2024-03-24T08:59:30.969Z,954.9300
2024-03-24T09:00:35.747Z,954.9200
2024-03-24T09:01:41.345Z,954.9200
2024-03-24T09:02:46.265Z,954.8900
2024-03-24T09:03:51.049Z,954.8500
2024-03-24T09:04:55.945Z,954.8100
2024-03-24T09:06:00.846Z,954.7900
2024-03-24T09:07:05.656Z,954.7700
2024-03-24T09:08:10.410Z,954.7600
2024-03-24T09:09:15.250Z,954.7800
2024-03-24T09:10:20.021Z,954.8300
2024-03-24T09:11:24.805Z,954.8400
2024-03-24T09:12:29.591Z,954.8500
2024-03-24T09:13:34.356Z,954.8300
2024-03-24T09:14:39.309Z,954.8200
2024-03-24T09:15:44.247Z,954.8300
2024-03-24T09:16:49.030Z,954.8300
2024-03-24T09:17:53.865Z,954.7900
2024-03-24T09:18:58.800Z,954.7700
2024-03-24T09:20:03.580Z,954.8100
2024-03-24T09:21:08.695Z,954.7800
2024-03-24T09:22:13.503Z,954.7300
2024-03-24T09:23:18.264Z,954.7600
2024-03-24T09:24:23.074Z,954.8300
2024-03-24T09:25:27.939Z,954.8200
2024-03-24T09:26:32.733Z,954.7900
2024-03-24T09:27:37.531Z,954.7400
2024-03-24T09:28:42.519Z,954.7200
2024-03-24T09:29:47.511Z,954.7300
2024-03-24T09:30:52.437Z,954.8100
2024-03-24T09:31:57.391Z,954.8300
2024-03-24T09:33:02.196Z,954.8600
2024-03-24T09:34:06.973Z,954.8900
2024-03-24T09:35:13.553Z,954.8800
2024-03-24T09:36:18.712Z,954.9200
2024-03-24T09:37:23.535Z,954.9000
2024-03-24T09:38:30.853Z,954.8700
2024-03-24T09:39:37.534Z,954.8600
2024-03-24T09:40:42.334Z,954.8400
2024-03-24T09:41:47.143Z,954.8900
2024-03-24T09:42:52.113Z,954.8300
2024-03-24T09:43:56.883Z,954.8100
2024-03-24T09:45:01.662Z,954.8200
2024-03-24T09:46:06.452Z,954.8300
2024-03-24T09:47:11.314Z,954.8300
2024-03-24T09:48:16.284Z,954.8100
2024-03-24T09:49:21.227Z,954.8200
2024-03-24T09:50:26.000Z,954.8200
2024-03-24T09:51:30.832Z,954.8000
2024-03-24T09:52:35.762Z,954.7900
2024-03-24T09:53:40.560Z,954.8500
2024-03-24T09:54:45.411Z,954.8000
2024-03-24T09:55:50.318Z,954.8200
2024-03-24T09:56:55.108Z,954.8200
2024-03-24T09:58:07.017Z,954.7600
2024-03-24T09:59:10.727Z,954.7300
2024-03-24T10:00:15.546Z,954.7300
2024-03-24T10:01:20.347Z,954.7200
2024-03-24T10:02:25.232Z,954.7500
2024-03-24T10:03:30.003Z,954.7500
2024-03-24T10:04:34.788Z,954.7500
2024-03-24T10:05:39.714Z,954.7700
2024-03-24T10:06:44.500Z,954.7900
2024-03-24T10:07:49.322Z,954.7500
2024-03-24T10:08:54.102Z,954.7700
2024-03-24T10:09:58.996Z,954.7600
2024-03-24T10:11:03.983Z,954.7100
2024-03-24T10:12:08.743Z,954.6800
2024-03-24T10:13:13.565Z,954.6800
2024-03-24T10:14:18.515Z,954.6400
2024-03-24T10:15:23.474Z,954.6700
2024-03-24T10:16:28.485Z,954.7100
2024-03-24T10:17:33.387Z,954.7000
2024-03-24T10:18:38.373Z,954.7000
2024-03-24T10:19:43.277Z,954.6900
2024-03-24T10:20:48.055Z,954.7000
2024-03-24T10:21:52.941Z,954.7400
2024-03-24T10:22:57.843Z,954.7200
2024-03-24T10:24:02.704Z,954.7300
2024-03-24T10:25:07.491Z,954.7700
2024-03-24T10:26:12.261Z,954.7500
2024-03-24T10:27:17.091Z,954.7300
2024-03-24T10:28:22.036Z,954.6900
2024-03-24T10:29:26.967Z,954.7200
2024-03-24T10:30:31.765Z,954.6900
2024-03-24T10:31:36.597Z,954.6800
2024-03-24T10:32:41.525Z,954.6900
2024-03-24T10:33:46.316Z,954.6800
2024-03-24T10:34:51.162Z,954.6700
2024-03-24T10:35:56.111Z,954.6600
2024-03-24T10:37:00.909Z,954.6500
2024-03-24T10:38:05.711Z,954.6500
2024-03-24T10:39:10.669Z,954.6800
2024-03-24T10:40:15.424Z,954.6600
2024-03-24T10:41:20.209Z,954.6700
2024-03-24T10:42:25.041Z,954.6600
2024-03-24T10:43:29.879Z,954.6600
2024-03-24T10:44:34.664Z,954.6700
2024-03-24T10:45:39.477Z,954.6800
2024-03-24T10:46:44.431Z,954.6500
2024-03-24T10:47:49.230Z,954.6800
2024-03-24T10:48:54.046Z,954.6500
2024-03-24T10:49:58.999Z,954.6200
2024-03-24T10:51:03.794Z,954.5900
2024-03-24T10:52:08.681Z,954.6400
2024-03-24T10:53:13.446Z,954.6800
2024-03-24T10:54:18.222Z,954.6800
2024-03-24T10:55:23.154Z,954.6800
2024-03-24T10:56:28.135Z,954.7000
2024-03-24T10:57:32.917Z,954.7000
2024-03-24T10:58:37.711Z,954.6800
2024-03-24T10:59:42.675Z,954.7000
2024-03-24T11:00:47.454Z,954.6600
2024-03-24T11:01:52.290Z,954.6100
2024-03-24T11:02:57.211Z,954.5800
2024-03-24T11:04:02.014Z,954.6100
2024-03-24T11:05:06.826Z,954.6200
2024-03-24T11:06:14.769Z,954.6300
2024-03-24T11:07:20.894Z,954.7000
2024-03-24T11:08:25.810Z,954.7300
2024-03-24T11:09:30.607Z,954.7600
2024-03-24T11:10:35.461Z,954.7400
2024-03-24T11:11:40.365Z,954.7400
2024-03-24T11:12:45.140Z,954.7400
2024-03-24T11:13:50.016Z,954.7100
2024-03-24T11:14:54.943Z,954.6200
2024-03-24T11:15:59.705Z,954.5200
2024-03-24T11:17:04.596Z,954.4600
2024-03-24T11:18:09.499Z,954.4500
2024-03-24T11:19:14.282Z,954.4300
2024-03-24T11:20:19.134Z,954.3700
2024-03-24T11:21:24.086Z,954.3500
2024-03-24T11:22:28.869Z,954.3800
2024-03-24T11:23:33.707Z,954.3600
2024-03-24T11:24:38.610Z,954.3700
2024-03-24T11:25:43.452Z,954.3600
2024-03-24T11:26:48.279Z,954.3700
2024-03-24T11:27:53.242Z,954.3800
2024-03-24T11:28:58.184Z,954.3600
2024-03-24T11:30:03.179Z,954.3600
2024-03-24T11:31:08.117Z,954.3800
2024-03-24T11:32:13.131Z,954.3800
2024-03-24T11:33:18.013Z,954.4000
2024-03-24T11:34:22.956Z,954.4200
2024-03-24T11:35:27.743Z,954.4200
2024-03-24T11:36:32.650Z,954.4300
2024-03-24T11:37:37.616Z,954.4400
2024-03-24T11:38:42.403Z,954.4700
2024-03-24T11:39:47.191Z,954.4300
2024-03-24T11:40:53.486Z,954.4100
2024-03-24T11:41:58.415Z,954.4100
2024-03-24T11:43:03.378Z,954.4300
2024-03-24T11:44:08.295Z,954.4700
2024-03-24T11:45:13.278Z,954.4700
2024-03-24T11:46:18.055Z,954.5100
2024-03-24T11:47:22.898Z,954.4200
2024-03-24T11:48:27.807Z,954.3800
2024-03-24T11:49:32.595Z,954.4200
2024-03-24T11:50:37.445Z,954.4000
2024-03-24T11:51:42.384Z,954.4400
2024-03-24T11:52:49.362Z,954.4100
2024-03-24T11:53:55.817Z,954.3900
2024-03-24T11:55:00.642Z,954.3300
2024-03-24T11:56:05.441Z,954.3300
2024-03-24T11:57:10.400Z,954.3100
2024-03-24T11:58:15.225Z,954.3100
2024-03-24T11:59:19.998Z,954.3700
2024-03-24T12:00:24.962Z,954.3300
2024-03-24T12:01:29.927Z,954.2500
2024-03-24T12:02:34.876Z,954.2200
2024-03-24T12:03:39.849Z,954.2100
2024-03-24T12:04:44.742Z,954.1600
2024-03-24T12:05:49.552Z,954.1000
2024-03-24T12:06:54.418Z,954.0400
2024-03-24T12:07:59.325Z,954.0400
2024-03-24T12:09:04.133Z,954.0400
2024-03-24T12:10:08.951Z,954.0300
2024-03-24T12:11:13.842Z,954.0700
2024-03-24T12:12:18.657Z,954.0100
2024-03-24T12:13:23.519Z,953.9900
2024-03-24T12:14:28.403Z,953.9900
2024-03-24T12:15:33.221Z,953.9200
2024-03-24T12:16:38.080Z,953.9000
2024-03-24T12:17:42.994Z,953.8600
2024-03-24T12:18:47.790Z,953.8500
2024-03-24T12:19:52.541Z,953.8800
2024-03-24T12:20:57.339Z,953.8600
2024-03-24T12:22:02.237Z,953.8300
2024-03-24T12:23:07.199Z,953.8100
2024-03-24T12:24:12.097Z,953.8500
2024-03-24T12:25:16.914Z,953.8400
2024-03-24T12:26:21.742Z,953.8100
2024-03-24T12:27:26.663Z,953.8900
2024-03-24T12:28:31.608Z,953.8500
2024-03-24T12:29:36.405Z,953.8000
2024-03-24T12:30:41.216Z,953.8000
2024-03-24T12:31:46.043Z,953.7700
2024-03-24T12:32:50.881Z,953.7500
2024-03-24T12:33:55.780Z,953.7400
2024-03-24T12:35:00.575Z,953.7000
2024-03-24T12:36:05.430Z,953.7300
2024-03-24T12:37:10.365Z,953.6900
2024-03-24T12:38:15.183Z,953.7000
2024-03-24T12:39:20.005Z,953.6500
2024-03-24T12:40:24.957Z,953.6300
2024-03-24T12:41:29.923Z,953.6400
2024-03-24T12:42:34.865Z,953.5700